sensor_id;sensor_type;location;lat;lon;timestamp;P1;durP1;ratioP1;P2;durP2;ratioP2
55609;SDS011;41486;52.502;13.486;2022-08-19T00:01:55;7.25;;;6.10;;
55609;SDS011;41486;52.502;13.486;2022-08-19T00:04:26;7.30;;;6.45;;
55609;SDS011;41486;52.502;13.486;2022-08-19T00:06:59;6.65;;;5.88;;
55609;SDS011;41486;52.502;13.486;2022-08-19T00:09:27;7.63;;;6.60;;
55609;SDS011;41486;52.502;13.486;2022-08-19T00:11:56;8.18;;;6.68;;
55609;SDS011;41486;52.502;13.486;2022-08-19T00:14:25;6.88;;;6.18;;
55609;SDS011;41486;52.502;13.486;2022-08-19T00:16:54;8.30;;;6.85;;
55609;SDS011;41486;52.502;13.486;2022-08-19T00:19:22;7.03;;;5.82;;
55609;SDS011;41486;52.502;13.486;2022-08-19T00:21:52;8.02;;;6.72;;
55609;SDS011;41486;52.502;13.486;2022-08-19T00:24:20;6.30;;;5.68;;
55609;SDS011;41486;52.502;13.486;2022-08-19T00:26:49;7.43;;;5.90;;
55609;SDS011;41486;52.502;13.486;2022-08-19T00:29:19;7.28;;;6.50;;
55609;SDS011;41486;52.502;13.486;2022-08-19T00:31:48;9.55;;;6.80;;
55609;SDS011;41486;52.502;13.486;2022-08-19T00:34:19;7.10;;;6.38;;
55609;SDS011;41486;52.502;13.486;2022-08-19T00:36:48;7.85;;;6.78;;
55609;SDS011;41486;52.502;13.486;2022-08-19T00:39:17;8.32;;;7.47;;
55609;SDS011;41486;52.502;13.486;2022-08-19T00:41:46;9.25;;;7.93;;
55609;SDS011;41486;52.502;13.486;2022-08-19T00:44:16;9.70;;;7.35;;
55609;SDS011;41486;52.502;13.486;2022-08-19T00:46:48;12.18;;;9.52;;
55609;SDS011;41486;52.502;13.486;2022-08-19T00:49:24;9.70;;;8.70;;
55609;SDS011;41486;52.502;13.486;2022-08-19T00:51:56;11.93;;;8.70;;
55609;SDS011;41486;52.502;13.486;2022-08-19T00:54:29;10.80;;;9.70;;
55609;SDS011;41486;52.502;13.486;2022-08-19T00:56:57;11.75;;;10.18;;
55609;SDS011;41486;52.502;13.486;2022-08-19T00:59:26;10.43;;;9.30;;
55609;SDS011;41486;52.502;13.486;2022-08-19T01:02:15;10.15;;;9.10;;
55609;SDS011;41486;52.502;13.486;2022-08-19T01:04:44;11.82;;;9.27;;
55609;SDS011;41486;52.502;13.486;2022-08-19T01:07:12;9.93;;;8.82;;
55609;SDS011;41486;52.502;13.486;2022-08-19T01:09:46;12.23;;;9.50;;
55609;SDS011;41486;52.502;13.486;2022-08-19T01:12:14;10.90;;;9.38;;
55609;SDS011;41486;52.502;13.486;2022-08-19T01:14:44;10.75;;;9.43;;
55609;SDS011;41486;52.502;13.486;2022-08-19T01:17:12;9.43;;;8.43;;
55609;SDS011;41486;52.502;13.486;2022-08-19T01:19:43;10.63;;;9.52;;
55609;SDS011;41486;52.502;13.486;2022-08-19T01:22:16;12.52;;;10.07;;
55609;SDS011;41486;52.502;13.486;2022-08-19T01:24:59;12.98;;;10.02;;
55609;SDS011;41486;52.502;13.486;2022-08-19T01:27:28;10.45;;;9.30;;
55609;SDS011;41486;52.502;13.486;2022-08-19T01:30:09;12.55;;;10.65;;
55609;SDS011;41486;52.502;13.486;2022-08-19T01:32:39;14.05;;;11.00;;
55609;SDS011;41486;52.502;13.486;2022-08-19T01:35:07;15.25;;;11.02;;
55609;SDS011;41486;52.502;13.486;2022-08-19T01:37:46;15.20;;;11.15;;
55609;SDS011;41486;52.502;13.486;2022-08-19T01:40:16;13.73;;;12.23;;
55609;SDS011;41486;52.502;13.486;2022-08-19T01:42:46;16.98;;;13.65;;
55609;SDS011;41486;52.502;13.486;2022-08-19T01:45:15;17.40;;;11.90;;
55609;SDS011;41486;52.502;13.486;2022-08-19T01:47:43;19.10;;;11.73;;
55609;SDS011;41486;52.502;13.486;2022-08-19T01:52:58;10.98;;;9.65;;
55609;SDS011;41486;52.502;13.486;2022-08-19T01:55:32;16.63;;;11.02;;
55609;SDS011;41486;52.502;13.486;2022-08-19T01:58:07;16.88;;;12.68;;
55609;SDS011;41486;52.502;13.486;2022-08-19T02:00:38;13.50;;;10.65;;
55609;SDS011;41486;52.502;13.486;2022-08-19T02:03:07;11.25;;;10.07;;
55609;SDS011;41486;52.502;13.486;2022-08-19T02:05:37;10.85;;;8.27;;
55609;SDS011;41486;52.502;13.486;2022-08-19T02:08:07;12.60;;;8.75;;
55609;SDS011;41486;52.502;13.486;2022-08-19T02:10:39;9.95;;;8.07;;
55609;SDS011;41486;52.502;13.486;2022-08-19T02:13:08;11.65;;;8.15;;
55609;SDS011;41486;52.502;13.486;2022-08-19T02:15:37;7.13;;;5.97;;
55609;SDS011;41486;52.502;13.486;2022-08-19T02:18:05;12.43;;;9.48;;
55609;SDS011;41486;52.502;13.486;2022-08-19T02:20:35;9.90;;;8.32;;
55609;SDS011;41486;52.502;13.486;2022-08-19T02:23:04;8.70;;;7.25;;
55609;SDS011;41486;52.502;13.486;2022-08-19T02:25:40;9.90;;;8.13;;
55609;SDS011;41486;52.502;13.486;2022-08-19T02:28:08;11.35;;;8.38;;
55609;SDS011;41486;52.502;13.486;2022-08-19T02:30:43;9.60;;;8.18;;
55609;SDS011;41486;52.502;13.486;2022-08-19T02:33:12;9.85;;;8.43;;
55609;SDS011;41486;52.502;13.486;2022-08-19T02:35:40;11.00;;;8.57;;
55609;SDS011;41486;52.502;13.486;2022-08-19T02:38:09;8.65;;;7.50;;
55609;SDS011;41486;52.502;13.486;2022-08-19T02:40:57;8.43;;;7.55;;
55609;SDS011;41486;52.502;13.486;2022-08-19T02:43:27;8.45;;;7.63;;
55609;SDS011;41486;52.502;13.486;2022-08-19T02:46:00;12.63;;;9.65;;
55609;SDS011;41486;52.502;13.486;2022-08-19T02:48:28;12.10;;;9.18;;
55609;SDS011;41486;52.502;13.486;2022-08-19T02:50:59;11.80;;;9.43;;
55609;SDS011;41486;52.502;13.486;2022-08-19T02:53:27;13.15;;;10.13;;
55609;SDS011;41486;52.502;13.486;2022-08-19T02:55:57;11.52;;;10.27;;
55609;SDS011;41486;52.502;13.486;2022-08-19T02:58:25;13.55;;;11.02;;
55609;SDS011;41486;52.502;13.486;2022-08-19T03:00:54;13.88;;;11.20;;
55609;SDS011;41486;52.502;13.486;2022-08-19T03:03:24;13.80;;;11.32;;
55609;SDS011;41486;52.502;13.486;2022-08-19T03:06:01;13.77;;;12.27;;
55609;SDS011;41486;52.502;13.486;2022-08-19T03:08:30;12.50;;;10.18;;
55609;SDS011;41486;52.502;13.486;2022-08-19T03:11:00;11.60;;;9.85;;
55609;SDS011;41486;52.502;13.486;2022-08-19T03:13:28;10.00;;;8.85;;
55609;SDS011;41486;52.502;13.486;2022-08-19T03:15:56;10.18;;;9.18;;
55609;SDS011;41486;52.502;13.486;2022-08-19T03:18:24;10.32;;;9.00;;
55609;SDS011;41486;52.502;13.486;2022-08-19T03:20:53;12.35;;;9.65;;
55609;SDS011;41486;52.502;13.486;2022-08-19T03:23:21;12.10;;;8.88;;
55609;SDS011;41486;52.502;13.486;2022-08-19T03:25:51;10.77;;;9.68;;
55609;SDS011;41486;52.502;13.486;2022-08-19T03:28:30;11.18;;;9.63;;
55609;SDS011;41486;52.502;13.486;2022-08-19T03:30:59;11.73;;;8.80;;
55609;SDS011;41486;52.502;13.486;2022-08-19T03:33:29;11.30;;;10.15;;
55609;SDS011;41486;52.502;13.486;2022-08-19T03:36:04;11.50;;;9.10;;
55609;SDS011;41486;52.502;13.486;2022-08-19T03:38:35;9.68;;;8.68;;
55609;SDS011;41486;52.502;13.486;2022-08-19T03:41:04;10.00;;;8.18;;
55609;SDS011;41486;52.502;13.486;2022-08-19T03:43:36;9.20;;;7.63;;
55609;SDS011;41486;52.502;13.486;2022-08-19T03:46:07;8.88;;;7.90;;
55609;SDS011;41486;52.502;13.486;2022-08-19T03:48:37;11.05;;;8.60;;
55609;SDS011;41486;52.502;13.486;2022-08-19T03:51:06;10.25;;;8.55;;
55609;SDS011;41486;52.502;13.486;2022-08-19T03:53:41;9.95;;;8.45;;
55609;SDS011;41486;52.502;13.486;2022-08-19T03:56:09;10.48;;;8.73;;
55609;SDS011;41486;52.502;13.486;2022-08-19T03:58:39;10.32;;;8.63;;
55609;SDS011;41486;52.502;13.486;2022-08-19T04:03:41;11.68;;;9.57;;
55609;SDS011;41486;52.502;13.486;2022-08-19T04:06:10;12.13;;;10.65;;
55609;SDS011;41486;52.502;13.486;2022-08-19T04:08:39;12.07;;;9.88;;
55609;SDS011;41486;52.502;13.486;2022-08-19T04:11:07;11.30;;;10.15;;
55609;SDS011;41486;52.502;13.486;2022-08-19T04:13:36;10.93;;;9.43;;
55609;SDS011;41486;52.502;13.486;2022-08-19T04:16:06;12.30;;;9.93;;
55609;SDS011;41486;52.502;13.486;2022-08-19T04:18:36;10.25;;;9.15;;
55609;SDS011;41486;52.502;13.486;2022-08-19T04:21:06;12.23;;;10.68;;
55609;SDS011;41486;52.502;13.486;2022-08-19T04:23:35;11.88;;;10.07;;
55609;SDS011;41486;52.502;13.486;2022-08-19T04:26:12;11.07;;;9.25;;
55609;SDS011;41486;52.502;13.486;2022-08-19T04:28:40;10.88;;;9.70;;
55609;SDS011;41486;52.502;13.486;2022-08-19T04:31:13;10.68;;;9.30;;
55609;SDS011;41486;52.502;13.486;2022-08-19T04:33:42;10.52;;;8.85;;
55609;SDS011;41486;52.502;13.486;2022-08-19T04:36:15;13.35;;;9.98;;
55609;SDS011;41486;52.502;13.486;2022-08-19T04:38:46;11.73;;;9.27;;
55609;SDS011;41486;52.502;13.486;2022-08-19T04:41:15;12.00;;;9.20;;
55609;SDS011;41486;52.502;13.486;2022-08-19T04:44:00;9.93;;;8.90;;
55609;SDS011;41486;52.502;13.486;2022-08-19T04:46:31;11.93;;;9.30;;
55609;SDS011;41486;52.502;13.486;2022-08-19T04:49:17;10.63;;;9.52;;
55609;SDS011;41486;52.502;13.486;2022-08-19T04:51:48;10.88;;;9.35;;
55609;SDS011;41486;52.502;13.486;2022-08-19T04:54:17;13.50;;;11.07;;
55609;SDS011;41486;52.502;13.486;2022-08-19T04:57:04;10.77;;;8.93;;
55609;SDS011;41486;52.502;13.486;2022-08-19T04:59:37;10.30;;;9.30;;
55609;SDS011;41486;52.502;13.486;2022-08-19T05:02:08;11.07;;;9.93;;
55609;SDS011;41486;52.502;13.486;2022-08-19T05:04:37;12.70;;;10.48;;
55609;SDS011;41486;52.502;13.486;2022-08-19T05:07:06;10.05;;;8.95;;
55609;SDS011;41486;52.502;13.486;2022-08-19T05:09:34;10.70;;;9.60;;
55609;SDS011;41486;52.502;13.486;2022-08-19T05:12:22;9.80;;;8.80;;
55609;SDS011;41486;52.502;13.486;2022-08-19T05:14:54;11.00;;;9.82;;
55609;SDS011;41486;52.502;13.486;2022-08-19T05:17:25;10.07;;;9.05;;
55609;SDS011;41486;52.502;13.486;2022-08-19T05:20:00;12.15;;;10.18;;
55609;SDS011;41486;52.502;13.486;2022-08-19T05:22:46;11.30;;;9.13;;
55609;SDS011;41486;52.502;13.486;2022-08-19T05:25:16;11.45;;;8.70;;
55609;SDS011;41486;52.502;13.486;2022-08-19T05:27:46;10.93;;;9.68;;
55609;SDS011;41486;52.502;13.486;2022-08-19T05:30:15;11.35;;;9.55;;
55609;SDS011;41486;52.502;13.486;2022-08-19T05:32:45;10.68;;;9.48;;
55609;SDS011;41486;52.502;13.486;2022-08-19T05:35:13;10.68;;;9.63;;
55609;SDS011;41486;52.502;13.486;2022-08-19T05:37:40;8.88;;;7.82;;
55609;SDS011;41486;52.502;13.486;2022-08-19T05:40:09;9.90;;;8.93;;
55609;SDS011;41486;52.502;13.486;2022-08-19T05:42:37;11.18;;;10.05;;
55609;SDS011;41486;52.502;13.486;2022-08-19T05:45:06;11.02;;;9.18;;
55609;SDS011;41486;52.502;13.486;2022-08-19T05:47:35;10.18;;;9.13;;
55609;SDS011;41486;52.502;13.486;2022-08-19T05:50:09;10.77;;;8.98;;
55609;SDS011;41486;52.502;13.486;2022-08-19T05:52:37;10.75;;;8.63;;
55609;SDS011;41486;52.502;13.486;2022-08-19T05:55:19;9.88;;;8.88;;
55609;SDS011;41486;52.502;13.486;2022-08-19T05:57:48;11.07;;;9.00;;
55609;SDS011;41486;52.502;13.486;2022-08-19T06:00:16;10.88;;;9.27;;
55609;SDS011;41486;52.502;13.486;2022-08-19T06:02:50;9.18;;;8.35;;
55609;SDS011;41486;52.502;13.486;2022-08-19T06:05:20;10.65;;;8.60;;
55609;SDS011;41486;52.502;13.486;2022-08-19T06:07:48;11.25;;;9.32;;
55609;SDS011;41486;52.502;13.486;2022-08-19T06:10:16;10.00;;;9.00;;
55609;SDS011;41486;52.502;13.486;2022-08-19T06:12:46;10.52;;;8.73;;
55609;SDS011;41486;52.502;13.486;2022-08-19T06:15:15;10.77;;;9.68;;
55609;SDS011;41486;52.502;13.486;2022-08-19T06:17:43;11.70;;;9.15;;
55609;SDS011;41486;52.502;13.486;2022-08-19T06:20:12;14.82;;;9.68;;
55609;SDS011;41486;52.502;13.486;2022-08-19T06:23:05;11.65;;;9.57;;
55609;SDS011;41486;52.502;13.486;2022-08-19T06:25:34;10.05;;;9.00;;
55609;SDS011;41486;52.502;13.486;2022-08-19T06:28:02;11.60;;;9.40;;
55609;SDS011;41486;52.502;13.486;2022-08-19T06:30:41;11.02;;;8.82;;
55609;SDS011;41486;52.502;13.486;2022-08-19T06:33:08;10.25;;;9.18;;
55609;SDS011;41486;52.502;13.486;2022-08-19T06:35:38;10.48;;;9.40;;
55609;SDS011;41486;52.502;13.486;2022-08-19T06:38:08;11.27;;;8.70;;
55609;SDS011;41486;52.502;13.486;2022-08-19T06:40:36;9.70;;;8.48;;
55609;SDS011;41486;52.502;13.486;2022-08-19T06:43:04;9.40;;;8.40;;
55609;SDS011;41486;52.502;13.486;2022-08-19T06:45:36;9.55;;;8.65;;
55609;SDS011;41486;52.502;13.486;2022-08-19T06:48:05;9.77;;;8.73;;
55609;SDS011;41486;52.502;13.486;2022-08-19T06:50:33;10.20;;;9.10;;
55609;SDS011;41486;52.502;13.486;2022-08-19T06:53:05;12.70;;;9.75;;
55609;SDS011;41486;52.502;13.486;2022-08-19T06:55:34;10.77;;;9.63;;
55609;SDS011;41486;52.502;13.486;2022-08-19T06:58:03;11.93;;;9.90;;
55609;SDS011;41486;52.502;13.486;2022-08-19T07:00:31;11.85;;;9.20;;
55609;SDS011;41486;52.502;13.486;2022-08-19T07:03:00;11.02;;;9.77;;
55609;SDS011;41486;52.502;13.486;2022-08-19T07:05:37;11.15;;;9.40;;
55609;SDS011;41486;52.502;13.486;2022-08-19T07:08:11;16.88;;;9.50;;
55609;SDS011;41486;52.502;13.486;2022-08-19T07:10:43;11.63;;;9.38;;
55609;SDS011;41486;52.502;13.486;2022-08-19T07:13:12;10.33;;;9.27;;
55609;SDS011;41486;52.502;13.486;2022-08-19T07:15:40;11.43;;;9.40;;
55609;SDS011;41486;52.502;13.486;2022-08-19T07:18:08;11.20;;;9.68;;
55609;SDS011;41486;52.502;13.486;2022-08-19T07:20:38;12.80;;;10.20;;
55609;SDS011;41486;52.502;13.486;2022-08-19T07:23:07;10.70;;;9.25;;
55609;SDS011;41486;52.502;13.486;2022-08-19T07:28:38;15.40;;;10.57;;
55609;SDS011;41486;52.502;13.486;2022-08-19T07:31:19;11.52;;;10.32;;
55609;SDS011;41486;52.502;13.486;2022-08-19T07:33:51;11.23;;;9.30;;
55609;SDS011;41486;52.502;13.486;2022-08-19T07:36:23;11.13;;;9.88;;
55609;SDS011;41486;52.502;13.486;2022-08-19T07:38:55;12.18;;;9.30;;
55609;SDS011;41486;52.502;13.486;2022-08-19T07:41:25;13.05;;;11.50;;
55609;SDS011;41486;52.502;13.486;2022-08-19T07:43:55;12.40;;;10.27;;
55609;SDS011;41486;52.502;13.486;2022-08-19T07:46:23;12.38;;;10.38;;
55609;SDS011;41486;52.502;13.486;2022-08-19T07:48:53;12.15;;;10.88;;
55609;SDS011;41486;52.502;13.486;2022-08-19T07:51:22;12.32;;;9.27;;
55609;SDS011;41486;52.502;13.486;2022-08-19T07:54:02;11.80;;;10.60;;
55609;SDS011;41486;52.502;13.486;2022-08-19T07:56:32;12.18;;;9.55;;
55609;SDS011;41486;52.502;13.486;2022-08-19T07:59:00;13.27;;;9.93;;
55609;SDS011;41486;52.502;13.486;2022-08-19T08:01:28;10.45;;;9.20;;
55609;SDS011;41486;52.502;13.486;2022-08-19T08:03:56;12.82;;;10.05;;
55609;SDS011;41486;52.502;13.486;2022-08-19T08:06:43;11.20;;;10.00;;
55609;SDS011;41486;52.502;13.486;2022-08-19T08:09:30;11.88;;;9.60;;
55609;SDS011;41486;52.502;13.486;2022-08-19T08:12:07;11.57;;;9.45;;
55609;SDS011;41486;52.502;13.486;2022-08-19T08:14:59;10.68;;;8.95;;
55609;SDS011;41486;52.502;13.486;2022-08-19T08:17:36;12.05;;;9.15;;
55609;SDS011;41486;52.502;13.486;2022-08-19T08:20:20;10.70;;;9.70;;
55609;SDS011;41486;52.502;13.486;2022-08-19T08:22:48;11.00;;;9.43;;
55609;SDS011;41486;52.502;13.486;2022-08-19T08:25:34;11.20;;;9.82;;
55609;SDS011;41486;52.502;13.486;2022-08-19T08:28:44;11.38;;;9.38;;
55609;SDS011;41486;52.502;13.486;2022-08-19T08:31:15;10.98;;;8.82;;
55609;SDS011;41486;52.502;13.486;2022-08-19T08:33:46;11.82;;;9.00;;
55609;SDS011;41486;52.502;13.486;2022-08-19T08:36:15;12.40;;;10.07;;
55609;SDS011;41486;52.502;13.486;2022-08-19T08:38:44;11.38;;;9.25;;
55609;SDS011;41486;52.502;13.486;2022-08-19T08:41:22;13.60;;;11.63;;
55609;SDS011;41486;52.502;13.486;2022-08-19T08:44:16;13.02;;;10.00;;
55609;SDS011;41486;52.502;13.486;2022-08-19T08:46:53;13.07;;;9.23;;
55609;SDS011;41486;52.502;13.486;2022-08-19T08:49:40;11.95;;;10.32;;
55609;SDS011;41486;52.502;13.486;2022-08-19T08:52:26;11.68;;;9.63;;
55609;SDS011;41486;52.502;13.486;2022-08-19T08:55:06;11.52;;;10.35;;
55609;SDS011;41486;52.502;13.486;2022-08-19T08:58:01;11.13;;;10.02;;
55609;SDS011;41486;52.502;13.486;2022-08-19T09:00:38;10.73;;;9.25;;
55609;SDS011;41486;52.502;13.486;2022-08-19T09:03:09;12.07;;;10.07;;
55609;SDS011;41486;52.502;13.486;2022-08-19T09:05:52;10.88;;;9.73;;
55609;SDS011;41486;52.502;13.486;2022-08-19T09:08:30;10.55;;;9.40;;
55609;SDS011;41486;52.502;13.486;2022-08-19T09:11:10;10.68;;;9.13;;
55609;SDS011;41486;52.502;13.486;2022-08-19T09:14:05;12.90;;;9.95;;
55609;SDS011;41486;52.502;13.486;2022-08-19T09:17:09;16.27;;;10.60;;
55609;SDS011;41486;52.502;13.486;2022-08-19T09:19:49;11.35;;;10.20;;
55609;SDS011;41486;52.502;13.486;2022-08-19T09:22:21;12.75;;;10.45;;
55609;SDS011;41486;52.502;13.486;2022-08-19T09:24:55;15.95;;;10.88;;
55609;SDS011;41486;52.502;13.486;2022-08-19T09:27:24;13.15;;;10.93;;
55609;SDS011;41486;52.502;13.486;2022-08-19T09:30:10;13.15;;;11.43;;
55609;SDS011;41486;52.502;13.486;2022-08-19T09:32:43;12.30;;;10.70;;
55609;SDS011;41486;52.502;13.486;2022-08-19T09:35:12;12.70;;;10.90;;
55609;SDS011;41486;52.502;13.486;2022-08-19T09:37:44;13.88;;;11.30;;
55609;SDS011;41486;52.502;13.486;2022-08-19T09:40:12;12.88;;;10.13;;
55609;SDS011;41486;52.502;13.486;2022-08-19T09:42:54;12.02;;;10.63;;
55609;SDS011;41486;52.502;13.486;2022-08-19T09:45:29;15.20;;;10.35;;
55609;SDS011;41486;52.502;13.486;2022-08-19T09:48:02;11.35;;;10.15;;
55609;SDS011;41486;52.502;13.486;2022-08-19T09:50:37;13.35;;;10.85;;
55609;SDS011;41486;52.502;13.486;2022-08-19T09:53:27;11.90;;;10.65;;
55609;SDS011;41486;52.502;13.486;2022-08-19T09:56:01;12.10;;;10.88;;
55609;SDS011;41486;52.502;13.486;2022-08-19T09:58:33;11.32;;;10.18;;
55609;SDS011;41486;52.502;13.486;2022-08-19T10:01:03;11.73;;;10.45;;
55609;SDS011;41486;52.502;13.486;2022-08-19T10:03:33;13.02;;;9.95;;
55609;SDS011;41486;52.502;13.486;2022-08-19T10:06:03;11.32;;;9.80;;
55609;SDS011;41486;52.502;13.486;2022-08-19T10:08:42;14.02;;;10.95;;
55609;SDS011;41486;52.502;13.486;2022-08-19T10:11:16;10.85;;;9.75;;
55609;SDS011;41486;52.502;13.486;2022-08-19T10:14:00;12.63;;;9.88;;
55609;SDS011;41486;52.502;13.486;2022-08-19T10:16:28;10.77;;;9.13;;
55609;SDS011;41486;52.502;13.486;2022-08-19T10:19:04;11.55;;;9.85;;
55609;SDS011;41486;52.502;13.486;2022-08-19T10:21:33;11.35;;;8.75;;
55609;SDS011;41486;52.502;13.486;2022-08-19T10:24:04;11.63;;;9.35;;
55609;SDS011;41486;52.502;13.486;2022-08-19T10:26:39;9.52;;;8.18;;
55609;SDS011;41486;52.502;13.486;2022-08-19T10:29:12;10.13;;;9.10;;
55609;SDS011;41486;52.502;13.486;2022-08-19T10:31:58;10.40;;;9.38;;
55609;SDS011;41486;52.502;13.486;2022-08-19T10:34:29;8.50;;;7.57;;
55609;SDS011;41486;52.502;13.486;2022-08-19T10:36:57;11.13;;;9.13;;
55609;SDS011;41486;52.502;13.486;2022-08-19T10:39:29;10.73;;;9.23;;
55609;SDS011;41486;52.502;13.486;2022-08-19T10:42:09;9.93;;;8.93;;
55609;SDS011;41486;52.502;13.486;2022-08-19T10:44:39;8.55;;;7.20;;
55609;SDS011;41486;52.502;13.486;2022-08-19T10:47:07;11.93;;;8.90;;
55609;SDS011;41486;52.502;13.486;2022-08-19T10:49:50;8.93;;;7.85;;
55609;SDS011;41486;52.502;13.486;2022-08-19T10:52:37;9.32;;;8.43;;
55609;SDS011;41486;52.502;13.486;2022-08-19T10:55:18;9.52;;;8.43;;
55609;SDS011;41486;52.502;13.486;2022-08-19T10:58:09;12.73;;;9.75;;
55609;SDS011;41486;52.502;13.486;2022-08-19T11:00:39;8.95;;;7.78;;
55609;SDS011;41486;52.502;13.486;2022-08-19T11:03:08;10.75;;;8.65;;
55609;SDS011;41486;52.502;13.486;2022-08-19T11:05:37;13.48;;;8.50;;
55609;SDS011;41486;52.502;13.486;2022-08-19T11:08:06;9.50;;;8.55;;
55609;SDS011;41486;52.502;13.486;2022-08-19T11:10:54;9.20;;;8.27;;
55609;SDS011;41486;52.502;13.486;2022-08-19T11:13:27;9.40;;;7.28;;
55609;SDS011;41486;52.502;13.486;2022-08-19T11:15:58;9.10;;;7.95;;
55609;SDS011;41486;52.502;13.486;2022-08-19T11:18:33;11.18;;;8.70;;
55609;SDS011;41486;52.502;13.486;2022-08-19T11:21:07;10.20;;;8.20;;
55609;SDS011;41486;52.502;13.486;2022-08-19T11:23:37;11.93;;;9.32;;
55609;SDS011;41486;52.502;13.486;2022-08-19T11:26:06;9.70;;;8.70;;
55609;SDS011;41486;52.502;13.486;2022-08-19T11:28:34;12.27;;;8.38;;
55609;SDS011;41486;52.502;13.486;2022-08-19T11:31:03;9.43;;;8.50;;
55609;SDS011;41486;52.502;13.486;2022-08-19T11:33:31;8.55;;;7.65;;
55609;SDS011;41486;52.502;13.486;2022-08-19T11:36:00;9.70;;;6.82;;
55609;SDS011;41486;52.502;13.486;2022-08-19T11:38:28;8.55;;;7.40;;
55609;SDS011;41486;52.502;13.486;2022-08-19T11:40:57;9.82;;;8.48;;
55609;SDS011;41486;52.502;13.486;2022-08-19T11:43:27;7.55;;;6.53;;
55609;SDS011;41486;52.502;13.486;2022-08-19T11:46:03;9.23;;;7.82;;
55609;SDS011;41486;52.502;13.486;2022-08-19T11:48:33;12.73;;;8.77;;
55609;SDS011;41486;52.502;13.486;2022-08-19T11:51:03;11.50;;;7.32;;
55609;SDS011;41486;52.502;13.486;2022-08-19T11:53:33;8.80;;;7.90;;
55609;SDS011;41486;52.502;13.486;2022-08-19T11:56:02;8.90;;;8.00;;
55609;SDS011;41486;52.502;13.486;2022-08-19T11:58:32;8.77;;;6.78;;
55609;SDS011;41486;52.502;13.486;2022-08-19T12:01:04;8.60;;;7.78;;
55609;SDS011;41486;52.502;13.486;2022-08-19T12:03:34;9.10;;;7.63;;
55609;SDS011;41486;52.502;13.486;2022-08-19T12:06:03;7.53;;;6.72;;
55609;SDS011;41486;52.502;13.486;2022-08-19T12:08:32;9.65;;;6.68;;
55609;SDS011;41486;52.502;13.486;2022-08-19T12:11:00;7.70;;;6.82;;
55609;SDS011;41486;52.502;13.486;2022-08-19T12:13:28;10.18;;;6.95;;
55609;SDS011;41486;52.502;13.486;2022-08-19T12:15:58;8.25;;;6.93;;
55609;SDS011;41486;52.502;13.486;2022-08-19T12:18:26;8.15;;;6.72;;
55609;SDS011;41486;52.502;13.486;2022-08-19T12:20:54;7.55;;;6.80;;
55609;SDS011;41486;52.502;13.486;2022-08-19T12:23:23;6.60;;;5.57;;
55609;SDS011;41486;52.502;13.486;2022-08-19T12:25:51;7.75;;;6.38;;
55609;SDS011;41486;52.502;13.486;2022-08-19T12:28:19;7.68;;;6.88;;
55609;SDS011;41486;52.502;13.486;2022-08-19T12:30:49;7.88;;;6.57;;
55609;SDS011;41486;52.502;13.486;2022-08-19T12:33:19;7.72;;;6.93;;
55609;SDS011;41486;52.502;13.486;2022-08-19T12:35:51;9.80;;;6.72;;
55609;SDS011;41486;52.502;13.486;2022-08-19T12:38:19;7.07;;;6.38;;
55609;SDS011;41486;52.502;13.486;2022-08-19T12:40:50;7.63;;;6.47;;
55609;SDS011;41486;52.502;13.486;2022-08-19T12:46:20;6.32;;;5.72;;
55609;SDS011;41486;52.502;13.486;2022-08-19T12:48:53;7.25;;;5.63;;
55609;SDS011;41486;52.502;13.486;2022-08-19T12:51:21;6.40;;;5.63;;
55609;SDS011;41486;52.502;13.486;2022-08-19T12:53:49;6.50;;;5.38;;
55609;SDS011;41486;52.502;13.486;2022-08-19T12:56:17;7.50;;;6.25;;
55609;SDS011;41486;52.502;13.486;2022-08-19T12:58:49;21.10;;;14.55;;
55609;SDS011;41486;52.502;13.486;2022-08-19T13:01:18;6.10;;;5.50;;
55609;SDS011;41486;52.502;13.486;2022-08-19T13:03:49;6.28;;;5.68;;
55609;SDS011;41486;52.502;13.486;2022-08-19T13:06:20;5.88;;;5.22;;
55609;SDS011;41486;52.502;13.486;2022-08-19T13:08:48;6.93;;;6.18;;
55609;SDS011;41486;52.502;13.486;2022-08-19T13:11:17;6.78;;;6.07;;
55609;SDS011;41486;52.502;13.486;2022-08-19T13:13:47;6.82;;;6.05;;
55609;SDS011;41486;52.502;13.486;2022-08-19T13:16:17;7.07;;;6.20;;
55609;SDS011;41486;52.502;13.486;2022-08-19T13:18:48;7.70;;;6.57;;
55609;SDS011;41486;52.502;13.486;2022-08-19T13:21:20;6.93;;;6.20;;
55609;SDS011;41486;52.502;13.486;2022-08-19T13:23:51;6.90;;;5.63;;
55609;SDS011;41486;52.502;13.486;2022-08-19T13:26:23;7.65;;;6.32;;
55609;SDS011;41486;52.502;13.486;2022-08-19T13:28:52;7.80;;;7.10;;
55609;SDS011;41486;52.502;13.486;2022-08-19T13:31:40;9.38;;;7.60;;
55609;SDS011;41486;52.502;13.486;2022-08-19T13:34:29;8.02;;;6.53;;
55609;SDS011;41486;52.502;13.486;2022-08-19T13:37:00;8.20;;;6.75;;
55609;SDS011;41486;52.502;13.486;2022-08-19T13:39:30;8.65;;;6.55;;
55609;SDS011;41486;52.502;13.486;2022-08-19T13:41:59;8.27;;;7.32;;
55609;SDS011;41486;52.502;13.486;2022-08-19T13:44:28;9.68;;;7.70;;
55609;SDS011;41486;52.502;13.486;2022-08-19T13:47:00;8.95;;;7.13;;
55609;SDS011;41486;52.502;13.486;2022-08-19T13:49:34;7.15;;;6.45;;
55609;SDS011;41486;52.502;13.486;2022-08-19T13:52:04;10.20;;;6.68;;
55609;SDS011;41486;52.502;13.486;2022-08-19T13:54:33;7.93;;;7.13;;
55609;SDS011;41486;52.502;13.486;2022-08-19T13:57:01;8.25;;;7.47;;
55609;SDS011;41486;52.502;13.486;2022-08-19T13:59:30;7.88;;;6.65;;
55609;SDS011;41486;52.502;13.486;2022-08-19T14:01:58;7.03;;;5.55;;
55609;SDS011;41486;52.502;13.486;2022-08-19T14:04:27;8.48;;;7.10;;
55609;SDS011;41486;52.502;13.486;2022-08-19T14:06:55;7.65;;;6.93;;
55609;SDS011;41486;52.502;13.486;2022-08-19T14:09:24;8.70;;;7.10;;
55609;SDS011;41486;52.502;13.486;2022-08-19T14:11:55;7.65;;;6.38;;
55609;SDS011;41486;52.502;13.486;2022-08-19T14:14:25;8.02;;;6.50;;
55609;SDS011;41486;52.502;13.486;2022-08-19T14:16:53;7.70;;;6.78;;
55609;SDS011;41486;52.502;13.486;2022-08-19T14:19:22;7.70;;;6.60;;
55609;SDS011;41486;52.502;13.486;2022-08-19T14:21:58;8.93;;;7.15;;
55609;SDS011;41486;52.502;13.486;2022-08-19T14:24:30;7.38;;;6.68;;
55609;SDS011;41486;52.502;13.486;2022-08-19T14:26:59;8.15;;;6.72;;
55609;SDS011;41486;52.502;13.486;2022-08-19T14:29:27;7.93;;;6.55;;
55609;SDS011;41486;52.502;13.486;2022-08-19T14:31:55;8.30;;;6.45;;
55609;SDS011;41486;52.502;13.486;2022-08-19T14:34:25;7.38;;;6.35;;
55609;SDS011;41486;52.502;13.486;2022-08-19T14:36:54;7.95;;;6.82;;
55609;SDS011;41486;52.502;13.486;2022-08-19T14:39:22;8.70;;;6.20;;
55609;SDS011;41486;52.502;13.486;2022-08-19T14:41:51;7.40;;;6.70;;
55609;SDS011;41486;52.502;13.486;2022-08-19T14:44:19;9.40;;;6.88;;
55609;SDS011;41486;52.502;13.486;2022-08-19T14:46:49;6.55;;;5.78;;
55609;SDS011;41486;52.502;13.486;2022-08-19T14:49:20;7.03;;;6.07;;
55609;SDS011;41486;52.502;13.486;2022-08-19T14:52:00;8.55;;;5.97;;
55609;SDS011;41486;52.502;13.486;2022-08-19T14:54:29;8.68;;;7.78;;
55609;SDS011;41486;52.502;13.486;2022-08-19T14:56:59;7.15;;;6.43;;
55609;SDS011;41486;52.502;13.486;2022-08-19T14:59:27;7.20;;;6.50;;
55609;SDS011;41486;52.502;13.486;2022-08-19T15:01:55;6.93;;;6.22;;
55609;SDS011;41486;52.502;13.486;2022-08-19T15:04:23;8.13;;;7.32;;